Terminal Aerodrome Forecast
Issued by NWS Louisville, KY

Home | Current Version | Previous Version | Text Only | Print | Product List | Glossary On
Versions: 1 2 3 4 5 6 7 8 9 10 11 12 13 14 15 16 17 18
439
FTUS43 KLMK 221720
TAFSDF
TAF
KSDF 221720Z 2218/2324 08012KT P6SM BKN090
     FM230600 08010KT 6SM -RA OVC060 WS020/11035KT
     FM231100 09013G20KT 6SM -RA BKN025
     FM231400 10013G20KT 6SM -RA OVC016=

USA.gov is the U.S. government's official web portal to all federal, state and local government web resources and services.